Time;durP1;ratioP1;P1;durP2;ratioP2;P2;SDS_P1;SDS_P2;PMS_P1;PMS_P2;Temp;Humidity;BMP_temperature;BMP_pressure;BME280_temperature;BME280_humidity;BME280_pressure;Samples;Min_cycle;Max_cycle;Signal;HPM_P1;HPM_P2
2021/07/11 00:00:12;;;;;;;10.88;4.25;;;;;;;21.26;49.34;93757.16;6172559;23;20099;-82
2021/07/11 00:02:38;;;;;;;7.63;4.07;;;;;;;21.23;49.59;93755.94;6202981;23;20012;-81
2021/07/11 00:05:06;;;;;;;6.43;4.35;;;;;;;21.17;49.58;93747.38;6203390;23;20095;-81
2021/07/11 00:07:32;;;;;;;5.15;4.05;;;;;;;20.98;49.99;93742.00;6198906;23;20112;-82
2021/07/11 00:09:58;;;;;;;7.20;4.28;;;;;;;21.00;50.18;93755.09;6198775;23;20436;-82
2021/07/11 00:12:25;;;;;;;6.20;5.03;;;;;;;21.00;50.34;93755.88;6202597;23;20012;-82
2021/07/11 00:14:51;;;;;;;4.88;4.38;;;;;;;20.87;50.52;93751.75;6198061;23;20451;-81
2021/07/11 00:17:16;;;;;;;6.85;3.95;;;;;;;20.86;50.71;93749.44;6203951;23;20026;-81
2021/07/11 00:19:42;;;;;;;7.22;4.32;;;;;;;20.74;50.64;93736.91;6198105;23;20502;-83
2021/07/11 00:22:07;;;;;;;5.95;4.28;;;;;;;20.85;50.44;93750.56;6201214;23;20556;-81
2021/07/11 00:24:34;;;;;;;5.35;4.07;;;;;;;20.83;50.48;93742.06;6201513;23;20406;-82
2021/07/11 00:27:00;;;;;;;5.85;4.03;;;;;;;20.80;50.38;93742.78;6202592;23;20024;-83
2021/07/11 00:29:25;;;;;;;7.60;4.32;;;;;;;20.73;50.58;93736.13;6204121;23;20059;-81
2021/07/11 00:31:50;;;;;;;7.05;3.85;;;;;;;20.81;50.57;93752.41;6201366;23;20024;-82
2021/07/11 00:34:16;;;;;;;9.60;4.50;;;;;;;20.66;50.75;93733.31;6174021;23;20493;-81
2021/07/11 00:36:41;;;;;;;8.43;5.28;;;;;;;20.73;50.75;93748.78;6204736;23;20008;-83
2021/07/11 00:39:07;;;;;;;4.70;4.18;;;;;;;20.70;50.67;93747.59;6201060;23;20095;-82
2021/07/11 00:41:39;;;;;;;7.05;4.85;;;;;;;20.62;50.87;93731.69;6204871;23;20028;-81
2021/07/11 00:44:06;;;;;;;5.88;4.07;;;;;;;20.72;50.84;93742.63;6205980;23;20036;-81
2021/07/11 00:46:31;;;;;;;10.05;4.00;;;;;;;20.54;51.10;93746.09;6200858;23;20017;-81
2021/07/11 00:48:57;;;;;;;6.60;4.20;;;;;;;20.47;51.71;93741.34;6209668;23;20181;-81
2021/07/11 00:51:22;;;;;;;8.35;4.30;;;;;;;20.52;51.43;93743.00;6214777;23;20032;-82
2021/07/11 00:53:52;;;;;;;6.57;4.82;;;;;;;20.43;51.88;93745.09;6201991;23;20094;-81
2021/07/11 00:56:17;;;;;;;8.13;4.75;;;;;;;20.44;51.82;93752.78;6201776;23;20048;-81
2021/07/11 00:58:44;;;;;;;5.93;4.32;;;;;;;20.43;51.66;93751.22;6174421;23;20055;-82
2021/07/11 01:01:12;;;;;;;4.85;3.83;;;;;;;20.43;51.28;93742.41;6210221;23;20024;-81
2021/07/11 01:03:40;;;;;;;5.28;4.70;;;;;;;20.35;51.36;93744.16;6214248;23;20024;-81
2021/07/11 01:06:07;;;;;;;6.35;4.47;;;;;;;20.36;51.44;93737.66;6202031;23;20079;-82
2021/07/11 01:08:47;;;;;;;5.78;5.07;;;;;;;20.28;51.73;93735.94;6204005;23;20016;-82
2021/07/11 01:11:16;;;;;;;5.45;4.45;;;;;;;20.27;51.96;93747.78;6175023;23;20099;-81
2021/07/11 01:13:42;;;;;;;4.35;3.95;;;;;;;20.23;52.39;93744.25;6207075;23;20104;-81
2021/07/11 01:16:12;;;;;;;7.45;4.72;;;;;;;20.31;52.23;93736.03;6198895;23;20000;-82
2021/07/11 01:18:39;;;;;;;8.75;4.90;;;;;;;20.17;53.17;93726.84;6203523;23;20332;-81
2021/07/11 01:21:24;;;;;;;4.63;4.22;;;;;;;20.20;53.21;93726.94;6175018;23;20100;-81
2021/07/11 01:23:54;;;;;;;;;;;;;;;20.27;53.30;93731.69;6174273;23;20467;-81
2021/07/11 01:26:20;;;;;;;7.72;4.88;;;;;;;20.04;53.65;93730.75;6175070;23;19912;-81
2021/07/11 01:28:52;;;;;;;6.05;5.03;;;;;;;20.04;53.88;93730.75;6201198;23;20020;-81
2021/07/11 01:31:22;;;;;;;5.53;4.60;;;;;;;20.00;54.31;93725.31;6209288;23;20020;-81
2021/07/11 01:33:48;;;;;;;7.35;4.82;;;;;;;19.89;54.80;93732.34;6176565;23;20028;-82
2021/07/11 01:36:16;;;;;;;6.97;5.43;;;;;;;19.80;54.99;93731.75;6198937;23;20016;-82
2021/07/11 01:38:43;;;;;;;5.85;5.30;;;;;;;19.76;55.43;93729.00;6203160;23;20017;-82
2021/07/11 01:41:11;;;;;;;7.22;4.82;;;;;;;19.58;56.12;93729.69;6199636;23;20020;-81
2021/07/11 01:43:37;;;;;;;5.72;4.60;;;;;;;19.57;55.86;93739.63;6174138;23;20012;-81
2021/07/11 01:46:04;;;;;;;7.95;4.85;;;;;;;19.51;55.99;93737.53;6208816;23;20020;-81
2021/07/11 01:48:31;;;;;;;11.88;5.18;;;;;;;19.38;56.65;93736.81;6177475;23;20015;-82
2021/07/11 01:50:57;;;;;;;5.40;4.90;;;;;;;19.59;55.97;93739.28;6199857;23;20016;-81
2021/07/11 01:53:29;;;;;;;10.52;5.63;;;;;;;19.63;55.62;93740.16;6200693;23;20019;-82
2021/07/11 01:55:55;;;;;;;8.85;5.13;;;;;;;19.65;55.16;93735.22;6204653;23;20016;-81
2021/07/11 01:58:21;;;;;;;8.18;5.43;;;;;;;19.61;54.99;93737.03;6200596;23;20009;-81
2021/07/11 02:00:51;;;;;;;7.32;5.45;;;;;;;19.57;55.58;93736.94;6201999;23;20008;-81
2021/07/11 02:03:18;;;;;;;7.65;5.78;;;;;;;19.59;55.64;93737.41;6201715;23;20095;-82
2021/07/11 02:05:45;;;;;;;6.30;4.93;;;;;;;19.51;56.12;93732.97;6173007;23;20119;-82
2021/07/11 02:08:11;;;;;;;7.57;4.90;;;;;;;19.55;56.01;93751.84;6172833;23;20023;-82
2021/07/11 02:10:37;;;;;;;8.75;5.50;;;;;;;19.43;56.29;93750.75;6200080;23;20071;-82
2021/07/11 02:13:11;;;;;;;6.93;5.07;;;;;;;19.53;55.96;93752.16;6200941;23;20028;-81
2021/07/11 02:15:41;;;;;;;7.97;5.32;;;;;;;19.52;55.76;93757.88;6213135;23;20001;-82
2021/07/11 02:18:09;;;;;;;11.32;5.88;;;;;;;19.48;56.47;93759.69;6172823;23;20477;-81
2021/07/11 02:20:34;;;;;;;7.82;5.38;;;;;;;19.58;55.63;93759.97;6203259;23;20024;-82
2021/07/11 02:23:01;;;;;;;5.50;5.00;;;;;;;19.50;56.13;93757.44;6206058;23;20359;-81
2021/07/11 02:25:27;;;;;;;10.13;5.22;;;;;;;19.41;56.48;93755.66;6200760;23;20031;-81
2021/07/11 02:27:53;;;;;;;7.25;5.38;;;;;;;19.39;56.08;93757.94;6209611;23;20000;-82
2021/07/11 02:30:27;;;;;;;7.07;5.60;;;;;;;19.33;56.89;93769.22;6202928;23;20007;-81
2021/07/11 02:32:53;;;;;;;8.40;5.53;;;;;;;19.32;56.69;93773.81;6202619;23;20016;-81
2021/07/11 02:35:45;;;;;;;6.05;5.45;;;;;;;19.18;57.79;93770.75;6203072;23;20040;-81
2021/07/11 02:38:16;;;;;;;7.60;6.10;;;;;;;19.03;58.40;93755.44;6173424;23;20016;-81
2021/07/11 02:40:42;;;;;;;8.57;5.20;;;;;;;19.10;57.12;93760.97;6173518;23;20111;-82
2021/07/11 02:43:11;;;;;;;8.02;5.13;;;;;;;19.16;57.63;93766.84;6172529;23;20038;-81
2021/07/11 02:45:39;;;;;;;8.77;5.95;;;;;;;19.06;58.22;93759.34;6211785;23;20487;-81
2021/07/11 02:48:07;;;;;;;10.10;6.38;;;;;;;19.05;58.43;93753.19;6174214;23;20052;-81
2021/07/11 02:50:34;;;;;;;7.50;6.57;;;;;;;19.03;58.79;93768.81;6203254;23;20028;-80
2021/07/11 02:53:02;;;;;;;9.00;5.60;;;;;;;19.02;58.68;93765.34;6205642;23;20103;-81
2021/07/11 02:55:34;;;;;;;7.72;6.93;;;;;;;19.05;58.51;93779.97;6208077;23;20017;-81
2021/07/11 02:58:04;;;;;;;9.63;6.18;;;;;;;19.05;58.96;93785.34;6208932;23;19993;-80
2021/07/11 03:00:30;;;;;;;11.93;6.90;;;;;;;19.08;58.28;93783.84;6213623;23;20001;-80
2021/07/11 03:02:56;;;;;;;7.50;5.97;;;;;;;18.99;58.15;93779.44;6200025;23;20017;-80
2021/07/11 03:05:24;;;;;;;7.03;5.78;;;;;;;18.93;57.99;93788.03;6199258;23;20013;-81
2021/07/11 03:07:50;;;;;;;6.88;5.55;;;;;;;19.04;57.66;93794.47;6199531;23;20196;-80
2021/07/11 03:10:17;;;;;;;14.60;5.75;;;;;;;19.07;58.18;93787.66;6199773;23;20180;-81
2021/07/11 03:12:45;;;;;;;7.60;4.95;;;;;;;19.17;55.71;93789.84;6175677;23;20015;-81
2021/07/11 03:15:11;;;;;;;6.68;4.60;;;;;;;19.41;55.17;93798.53;6199929;23;20111;-81
2021/07/11 03:17:39;;;;;;;6.88;5.53;;;;;;;19.48;57.29;93787.25;6173619;23;20020;-81
2021/07/11 03:20:06;;;;;;;8.98;5.35;;;;;;;19.66;55.77;93791.16;6199078;23;20028;-81
2021/07/11 03:22:35;;;;;;;7.30;6.07;;;;;;;19.95;55.67;93794.53;6200349;23;20036;-82
2021/07/11 03:25:05;;;;;;;7.93;5.40;;;;;;;20.10;55.10;93786.50;6209088;23;20015;-81
2021/07/11 03:27:31;;;;;;;7.53;4.68;;;;;;;20.35;53.87;93784.41;6175282;23;20001;-81
2021/07/11 03:30:04;;;;;;;7.45;4.72;;;;;;;20.72;52.71;93787.53;6199427;23;20027;-81
2021/07/11 03:32:36;;;;;;;8.82;4.40;;;;;;;21.07;51.70;93779.38;6172870;23;20009;-82
2021/07/11 03:35:02;;;;;;;6.80;4.30;;;;;;;21.48;50.96;93785.97;6199400;23;20020;-82
2021/07/11 03:37:31;;;;;;;10.32;4.35;;;;;;;22.01;49.34;93774.22;6197721;23;20012;-83
2021/07/11 03:39:57;;;;;;;9.23;5.78;;;;;;;22.42;48.78;93788.72;6199041;23;20036;-82
2021/07/11 03:42:25;;;;;;;15.68;4.30;;;;;;;22.83;47.66;93781.59;6201972;23;20031;-82
2021/07/11 03:44:58;;;;;;;6.32;4.50;;;;;;;23.15;47.61;93787.38;6201556;23;20017;-83
2021/07/11 03:47:27;;;;;;;11.45;4.07;;;;;;;23.62;46.25;93786.75;6203430;23;20036;-82
2021/07/11 03:49:54;;;;;;;4.75;3.72;;;;;;;24.10;45.06;93782.19;6172017;23;20086;-83
2021/07/11 03:52:25;;;;;;;5.75;4.63;;;;;;;24.55;43.74;93791.03;6207318;23;20020;-82
2021/07/11 03:54:52;;;;;;;5.30;4.22;;;;;;;25.05;42.92;93792.09;6209156;23;20432;-83
2021/07/11 03:57:18;;;;;;;9.00;3.72;;;;;;;25.44;41.04;93793.03;6211720;23;20008;-83
2021/07/11 03:59:46;;;;;;;10.00;3.63;;;;;;;25.76;39.37;93798.53;6199181;23;20013;-82
2021/07/11 04:02:13;;;;;;;6.90;3.65;;;;;;;26.28;39.03;93797.09;6197817;23;20136;-82
2021/07/11 04:04:40;;;;;;;5.57;4.05;;;;;;;26.71;38.42;93797.03;6199244;23;20016;-82
2021/07/11 04:07:07;;;;;;;7.43;3.78;;;;;;;27.14;37.74;93798.50;6171857;23;20092;-82
2021/07/11 04:09:35;;;;;;;5.72;3.83;;;;;;;27.55;37.69;93795.28;6212380;23;20440;-82
2021/07/11 04:12:00;;;;;;;10.30;3.80;;;;;;;28.09;35.82;93795.72;6199681;23;20170;-83
2021/07/11 04:14:26;;;;;;;7.07;4.00;;;;;;;28.38;35.20;93789.69;6199506;23;20070;-83
2021/07/11 04:16:56;;;;;;;4.95;3.35;;;;;;;28.83;34.40;93798.63;6198176;23;20107;-83
2021/07/11 04:19:26;;;;;;;6.18;4.90;;;;;;;29.20;33.64;93803.28;6208071;23;20020;-83
2021/07/11 04:21:53;;;;;;;6.95;4.13;;;;;;;29.50;33.31;93799.06;6198851;23;20272;-83
2021/07/11 04:24:21;;;;;;;6.15;4.80;;;;;;;29.77;33.38;93801.81;6203534;23;20055;-83
2021/07/11 04:26:47;;;;;;;9.38;5.10;;;;;;;29.99;32.64;93808.56;6198595;23;20017;-83
2021/07/11 04:29:14;;;;;;;13.20;5.43;;;;;;;30.34;31.97;93807.25;6171792;23;20525;-83
2021/07/11 04:31:40;;;;;;;16.63;6.70;;;;;;;30.60;31.98;93802.94;6198715;23;20108;-83
2021/07/11 04:34:26;;;;;;;13.18;4.95;;;;;;;31.05;30.94;93801.41;6207527;23;20012;-83
2021/07/11 04:36:55;;;;;;;12.25;4.22;;;;;;;31.47;29.54;93810.75;6172476;23;20004;-83
2021/07/11 04:39:21;;;;;;;12.98;4.00;;;;;;;31.74;29.19;93805.13;6202035;23;20008;-83
2021/07/11 04:41:47;;;;;;;8.77;3.88;;;;;;;32.05;29.09;93814.63;6171857;23;20024;-83
2021/07/11 04:44:13;;;;;;;10.10;3.88;;;;;;;31.94;29.37;93811.34;6198962;23;20837;-83
2021/07/11 04:46:38;;;;;;;9.25;4.13;;;;;;;31.50;29.42;93809.91;6197561;23;20425;-83
2021/07/11 04:49:04;;;;;;;7.78;3.63;;;;;;;31.42;29.66;93809.25;6198317;23;20020;-82
2021/07/11 04:51:31;;;;;;;15.43;4.43;;;;;;;31.06;29.96;93813.88;6210848;23;20009;-83
2021/07/11 04:53:56;;;;;;;5.57;3.85;;;;;;;31.76;29.59;93813.69;6198808;23;20066;-83
2021/07/11 04:56:22;;;;;;;7.63;3.70;;;;;;;32.27;28.36;93803.97;6171779;23;20020;-83
2021/07/11 04:58:47;;;;;;;9.18;3.92;;;;;;;32.70;28.38;93811.94;6170095;23;20019;-83
2021/07/11 05:01:13;;;;;;;4.75;3.83;;;;;;;32.53;27.78;93818.63;6198826;23;20544;-84
2021/07/11 05:03:38;;;;;;;4.80;3.80;;;;;;;32.63;28.64;93810.19;6199740;23;20015;-83
2021/07/11 05:06:03;;;;;;;5.63;3.67;;;;;;;33.44;27.68;93812.00;6170835;23;20363;-83
2021/07/11 05:08:29;;;;;;;8.85;4.32;;;;;;;33.40;27.25;93814.84;6202422;23;20329;-83
2021/07/11 05:10:54;;;;;;;6.75;4.25;;;;;;;33.12;27.50;93807.38;6197385;23;20359;-83
2021/07/11 05:13:20;;;;;;;7.63;4.03;;;;;;;33.35;27.56;93811.84;6205576;23;20008;-83
2021/07/11 05:15:45;;;;;;;7.22;4.45;;;;;;;32.93;27.93;93800.81;6212245;23;20031;-84
2021/07/11 05:18:10;;;;;;;5.75;3.70;;;;;;;32.72;27.76;93814.25;6200893;23;20070;-85
2021/07/11 05:20:36;;;;;;;5.10;4.00;;;;;;;32.49;28.02;93807.75;6199965;23;20027;-82
2021/07/11 05:23:01;;;;;;;4.90;4.13;;;;;;;32.34;28.52;93814.75;6174662;23;20052;-84
2021/07/11 05:25:31;;;;;;;10.75;4.40;;;;;;;32.25;28.80;93809.88;6199834;23;20526;-85
2021/07/11 05:27:56;;;;;;;11.38;4.57;;;;;;;32.07;28.76;93800.50;6199646;23;20011;-83
2021/07/11 05:30:22;;;;;;;5.65;3.55;;;;;;;32.19;29.08;93817.06;6174979;23;20008;-83
2021/07/11 05:32:47;;;;;;;5.00;3.63;;;;;;;32.44;28.99;93811.00;6200793;23;20023;-83
2021/07/11 05:35:12;;;;;;;9.68;4.68;;;;;;;32.41;29.00;93806.38;6203550;23;20204;-83
2021/07/11 05:37:38;;;;;;;6.50;4.05;;;;;;;32.29;28.83;93787.16;6196759;23;20418;-83
2021/07/11 05:40:04;;;;;;;6.80;3.80;;;;;;;32.73;28.41;93813.06;6207403;23;20008;-84
2021/07/11 05:42:30;;;;;;;5.97;4.20;;;;;;;32.68;28.36;93814.38;6211237;23;20011;-84
2021/07/11 05:44:55;;;;;;;10.27;4.95;;;;;;;32.50;29.17;93800.31;6199650;23;20351;-85
2021/07/11 05:47:21;;;;;;;9.20;4.20;;;;;;;32.77;28.90;93811.00;6199716;23;20031;-84
2021/07/11 05:49:46;;;;;;;4.45;3.50;;;;;;;32.58;28.47;93809.91;6173150;23;20340;-84
2021/07/11 05:52:11;;;;;;;9.70;4.40;;;;;;;32.50;28.95;93814.00;6207427;23;20031;-85
2021/07/11 05:54:37;;;;;;;8.35;4.15;;;;;;;32.56;28.82;93806.81;6202584;23;20011;-84
2021/07/11 05:57:03;;;;;;;14.82;4.43;;;;;;;32.80;28.54;93813.66;6199868;23;20051;-84
2021/07/11 05:59:30;;;;;;;8.48;4.20;;;;;;;32.81;28.11;93812.47;6173474;23;20529;-85
2021/07/11 06:01:56;;;;;;;8.52;4.20;;;;;;;32.68;28.85;93814.38;6173703;23;20090;-83
2021/07/11 06:04:21;;;;;;;8.25;4.40;;;;;;;32.39;29.02;93808.00;6206609;23;20021;-85
2021/07/11 06:06:46;;;;;;;8.30;3.58;;;;;;;32.41;28.80;93811.84;6212362;23;20004;-86
2021/07/11 06:09:12;;;;;;;9.23;4.63;;;;;;;32.36;29.47;93809.63;6172475;23;20023;-85
2021/07/11 06:11:39;;;;;;;7.30;4.43;;;;;;;32.14;29.98;93814.84;6200116;23;20050;-84
2021/07/11 06:14:05;;;;;;;7.10;4.22;;;;;;;32.37;29.83;93804.94;6203551;23;20467;-83
2021/07/11 06:16:30;;;;;;;8.65;4.40;;;;;;;32.62;29.46;93813.31;6199945;23;20026;-85
2021/07/11 06:18:55;;;;;;;8.73;4.68;;;;;;;32.84;29.61;93806.13;6198108;23;20008;-85
2021/07/11 06:21:21;;;;;;;5.55;4.22;;;;;;;33.44;28.36;93787.34;6175500;23;20119;-86
2021/07/11 06:23:47;;;;;;;9.77;4.50;;;;;;;33.82;27.51;93807.38;6171493;23;20016;-85
2021/07/11 06:26:13;;;;;;;4.80;3.88;;;;;;;33.61;28.04;93802.50;6200013;23;20470;-83
2021/07/11 06:28:38;;;;;;;6.90;4.45;;;;;;;33.69;28.22;93809.34;6206806;23;20017;-84
2021/07/11 06:31:04;;;;;;;10.45;4.50;;;;;;;34.06;27.10;93813.38;6199425;23;20004;-85
2021/07/11 06:33:29;;;;;;;11.65;5.55;;;;;;;34.06;27.67;93802.41;6213019;23;20035;-85
2021/07/11 06:35:54;;;;;;;9.38;5.63;;;;;;;34.46;27.46;93805.47;6172027;23;20470;-84
2021/07/11 06:38:20;;;;;;;6.30;4.88;;;;;;;34.57;27.28;93808.63;6197954;23;20012;-84
2021/07/11 06:40:45;;;;;;;6.97;4.70;;;;;;;34.36;27.41;93809.31;6172582;23;20036;-86
2021/07/11 06:43:11;;;;;;;10.85;4.30;;;;;;;34.26;27.37;93797.47;6208123;23;20560;-84
2021/07/11 06:45:36;;;;;;;7.03;3.90;;;;;;;34.24;27.18;93794.41;6211760;23;20059;-83
2021/07/11 06:48:02;;;;;;;5.88;4.63;;;;;;;34.18;27.32;93800.88;6197950;23;20070;-83
2021/07/11 06:50:29;;;;;;;8.15;4.65;;;;;;;34.42;27.12;93801.28;6201141;23;20359;-82
2021/07/11 06:52:54;;;;;;;7.75;3.97;;;;;;;34.22;27.62;93801.53;6197449;23;20016;-84
2021/07/11 06:55:19;;;;;;;7.90;4.45;;;;;;;33.78;27.12;93793.03;6196940;23;20022;-84
2021/07/11 06:57:45;;;;;;;9.32;4.47;;;;;;;34.12;27.03;93797.88;6211339;23;20221;-84
2021/07/11 07:00:14;;;;;;;13.18;4.72;;;;;;;34.31;26.77;93796.13;6198470;23;20021;-85
2021/07/11 07:02:41;;;;;;;7.45;3.80;;;;;;;34.87;26.65;93784.56;6198234;23;20040;-85
2021/07/11 07:05:08;;;;;;;5.78;3.80;;;;;;;34.95;25.81;93785.84;6203705;23;20020;-84
2021/07/11 07:07:35;;;;;;;8.68;3.85;;;;;;;34.89;25.07;93768.41;6170101;23;20024;-85
2021/07/11 07:10:05;;;;;;;8.70;3.00;;;;;;;34.85;25.17;93797.94;6170480;23;20526;-82
2021/07/11 07:12:31;;;;;;;6.00;4.20;;;;;;;34.61;25.89;93797.53;6197198;23;20389;-84
2021/07/11 07:14:56;;;;;;;8.95;3.10;;;;;;;34.60;24.39;93791.28;6195508;23;20031;-82
2021/07/11 07:17:21;;;;;;;7.75;3.13;;;;;;;33.76;23.81;93795.44;6199033;23;20467;-82
2021/07/11 07:19:47;;;;;;;7.25;3.92;;;;;;;33.81;24.48;93797.66;6197835;23;20017;-83
2021/07/11 07:22:12;;;;;;;8.38;2.90;;;;;;;33.34;25.07;93804.84;6204560;23;20025;-83
2021/07/11 07:24:38;;;;;;;3.92;3.63;;;;;;;33.52;25.35;93794.16;6209383;23;20431;-83
2021/07/11 07:27:04;;;;;;;6.68;3.53;;;;;;;33.53;25.10;93796.44;6169141;23;20016;-82
2021/07/11 07:29:29;;;;;;;7.43;2.88;;;;;;;33.70;24.42;93810.88;6199165;23;20029;-80
2021/07/11 07:31:55;;;;;;;9.82;4.22;;;;;;;33.38;24.87;93789.09;6170043;23;20027;-87
2021/07/11 07:34:20;;;;;;;7.38;3.28;;;;;;;33.74;23.91;93800.59;6204978;23;20020;-85
2021/07/11 07:36:46;;;;;;;8.85;3.20;;;;;;;33.80;23.09;93798.84;6167723;23;20012;-83
2021/07/11 07:39:11;;;;;;;9.20;3.40;;;;;;;33.56;24.28;93789.34;6196941;23;20016;-84
2021/07/11 07:41:37;;;;;;;3.80;2.75;;;;;;;34.00;24.19;93784.19;6169882;23;20111;-82
2021/07/11 07:44:05;;;;;;;10.25;3.22;;;;;;;34.64;23.81;93796.66;6196818;23;20023;-86
2021/07/11 07:46:30;;;;;;;8.82;3.05;;;;;;;34.05;23.92;93791.84;6195855;23;20024;-82
2021/07/11 07:48:56;;;;;;;32.97;23.15;;;;;;;34.17;24.00;93788.34;6204363;23;20004;-89
2021/07/11 07:51:21;;;;;;;8.27;6.90;;;;;;;34.03;22.33;93799.75;6208886;23;20079;-87
2021/07/11 07:53:47;;;;;;;7.93;4.57;;;;;;;34.35;22.65;93796.81;6196677;23;20759;-91
2021/07/11 07:56:15;;;;;;;9.25;3.25;;;;;;;34.76;22.26;93799.41;6195541;23;20016;-86
2021/07/11 07:58:41;;;;;;;6.00;3.47;;;;;;;34.62;23.07;93791.63;6195987;23;20095;-89
2021/07/11 08:01:07;;;;;;;10.10;3.72;;;;;;;34.03;23.40;93795.03;6171200;23;20378;-85
2021/07/11 08:03:33;;;;;;;8.32;4.82;;;;;;;34.20;24.71;93776.53;6202562;23;20160;-85
2021/07/11 08:06:01;;;;;;;8.48;3.75;;;;;;;34.06;25.22;93766.75;6167241;23;20013;-87
2021/07/11 08:08:27;;;;;;;17.05;6.43;;;;;;;34.31;25.95;93768.72;6199478;23;20431;-89
2021/07/11 08:10:52;;;;;;;5.28;4.18;;;;;;;35.01;25.58;93789.56;6196639;23;20381;-83
2021/07/11 08:13:18;;;;;;;4.90;3.65;;;;;;;34.37;25.70;93775.19;6196550;23;20466;-89
2021/07/11 08:15:43;;;;;;;6.15;3.08;;;;;;;34.64;24.66;93794.69;6199160;23;20005;-88
2021/07/11 08:18:09;;;;;;;8.82;3.58;;;;;;;34.69;24.76;93794.16;6197852;23;20301;-92
2021/07/11 08:20:34;;;;;;;4.63;3.75;;;;;;;34.65;24.89;93785.22;6171332;23;20028;-88
2021/07/11 08:23:02;;;;;;;7.22;4.03;;;;;;;34.32;24.19;93764.75;6203370;23;20130;-90
2021/07/11 08:25:27;;;;;;;4.65;2.90;;;;;;;34.01;24.67;93759.06;6198038;23;20621;-86
2021/07/11 08:27:53;;;;;;;14.05;8.75;;;;;;;34.29;25.34;93760.16;6196328;23;20008;-87
2021/07/11 08:30:18;;;;;;;7.82;3.85;;;;;;;34.68;24.16;93776.16;6210226;23;20515;-88
2021/07/11 08:32:50;;;;;;;6.32;4.18;;;;;;;34.79;24.85;93795.03;6198855;23;20017;-85
2021/07/11 08:35:16;;;;;;;13.20;9.60;;;;;;;34.49;25.63;93796.38;6198942;23;20071;-89
2021/07/11 08:37:42;;;;;;;6.78;3.35;;;;;;;35.10;25.54;93770.41;6171008;23;20028;-84
2021/07/11 08:40:10;;;;;;;4.10;3.55;;;;;;;35.07;25.32;93782.28;6197944;23;21323;-84
2021/07/11 08:42:43;;;;;;;15.57;9.40;;;;;;;34.80;25.50;93776.56;6196500;23;20011;-88
2021/07/11 08:45:18;;;;;;;20.55;15.77;;;;;;;34.97;24.19;93783.44;6172471;23;20108;-92
2021/07/11 08:47:44;;;;;;;5.20;4.25;;;;;;;35.25;23.38;93763.22;6202252;23;20030;-86
2021/07/11 08:50:13;;;;;;;7.60;3.45;;;;;;;35.22;23.98;93777.09;6201063;23;20021;-85
2021/07/11 08:52:39;;;;;;;4.55;4.05;;;;;;;35.28;23.85;93764.34;6199039;23;20008;-86
2021/07/11 08:55:17;;;;;;;7.05;5.03;;;;;;;35.01;22.23;93773.09;6206275;23;20005;-84
2021/07/11 08:57:49;;;;;;;5.28;3.33;;;;;;;34.80;23.02;93757.34;6211735;23;20010;-85
2021/07/11 09:00:15;;;;;;;20.08;10.95;;;;;;;34.92;24.29;93764.78;6198767;23;20565;-88
2021/07/11 09:02:40;;;;;;;6.72;3.20;;;;;;;34.55;23.74;93742.44;6172638;23;20143;-90
2021/07/11 09:05:06;;;;;;;8.02;3.60;;;;;;;35.09;23.08;93753.16;6200819;23;20234;-90
2021/07/11 09:07:35;;;;;;;3.95;2.50;;;;;;;35.19;22.31;93743.03;6201395;23;20017;-87
2021/07/11 09:10:03;;;;;;;4.40;3.03;;;;;;;35.03;23.27;93784.41;6208631;23;20000;-87
2021/07/11 09:12:36;;;;;;;6.00;3.80;;;;;;;34.96;23.15;93768.94;6202982;23;20019;-85
2021/07/11 09:15:03;;;;;;;4.28;3.50;;;;;;;34.87;24.19;93748.88;6201270;23;20498;-86
2021/07/11 09:17:39;;;;;;;5.80;2.60;;;;;;;34.74;22.54;93755.19;6202268;23;20059;-88
2021/07/11 09:20:07;;;;;;;6.45;2.83;;;;;;;34.82;23.92;93749.44;6172420;23;20021;-87
2021/07/11 09:22:32;;;;;;;5.40;3.65;;;;;;;34.72;23.46;93765.06;6198730;23;20024;-87
2021/07/11 09:25:01;;;;;;;5.32;2.78;;;;;;;33.78;23.87;93727.25;6199728;23;20004;-87
2021/07/11 09:27:28;;;;;;;4.22;3.00;;;;;;;33.62;22.89;93770.41;6204689;23;20027;-88
2021/07/11 09:30:03;;;;;;;4.43;3.03;;;;;;;33.03;24.12;93750.50;6200350;23;20458;-87
2021/07/11 09:32:31;;;;;;;7.18;3.58;;;;;;;32.15;25.99;93739.81;6204407;23;20539;-89
2021/07/11 09:35:07;;;;;;;3.63;2.70;;;;;;;32.20;24.72;93742.03;6198030;23;20021;-87
2021/07/11 09:37:36;;;;;;;2.95;2.63;;;;;;;31.78;25.39;93721.91;6174026;23;20020;-87
2021/07/11 09:40:06;;;;;;;5.22;3.30;;;;;;;31.83;26.13;93772.53;6172471;23;20005;-88
2021/07/11 09:42:34;;;;;;;3.58;3.00;;;;;;;31.35;25.82;93721.25;6203139;23;20506;-88
2021/07/11 09:45:07;;;;;;;9.90;3.22;;;;;;;31.88;24.74;93763.84;6200783;23;20027;-89
2021/07/11 09:47:33;;;;;;;4.05;2.28;;;;;;;31.30;23.33;93752.56;6203277;23;20055;-84
2021/07/11 09:50:08;;;;;;;6.63;3.20;;;;;;;31.11;24.70;93745.16;6199492;23;20016;-87
2021/07/11 09:52:36;;;;;;;6.38;3.60;;;;;;;30.89;25.99;93714.72;6172994;23;20036;-86
2021/07/11 09:55:26;;;;;;;3.75;2.78;;;;;;;30.46;25.90;93717.47;6208587;23;20004;-88
2021/07/11 09:57:53;;;;;;;6.72;3.67;;;;;;;30.83;25.88;93762.03;6210116;23;20039;-88
2021/07/11 10:00:32;;;;;;;4.70;2.95;;;;;;;31.05;25.56;93740.59;6203764;23;20479;-88
2021/07/11 10:03:04;;;;;;;3.88;3.13;;;;;;;30.83;25.89;93715.66;6174941;23;20012;-87
2021/07/11 10:05:31;;;;;;;7.53;3.63;;;;;;;31.12;26.22;93752.16;6201908;23;20198;-85
2021/07/11 10:07:57;;;;;;;4.82;3.40;;;;;;;31.22;25.94;93740.25;6174558;23;20475;-87
2021/07/11 10:10:30;;;;;;;13.02;4.68;;;;;;;31.15;26.20;93715.81;6187693;23;20022;-87
2021/07/11 10:12:57;;;;;;;7.05;4.43;;;;;;;31.26;27.65;93749.13;6172823;23;20131;-86
2021/07/11 10:15:25;;;;;;;5.65;3.70;;;;;;;31.22;26.56;93744.94;6212918;23;20138;-87
2021/07/11 10:18:00;;;;;;;6.80;3.70;;;;;;;30.84;27.35;93704.31;6155712;23;20025;-87
2021/07/11 10:20:36;;;;;;;;;;;;;;;30.71;27.35;93754.44;6202466;23;20431;-84
2021/07/11 10:23:02;;;;;;;6.88;4.38;;;;;;;30.80;26.44;93743.75;6173550;23;19912;-84
2021/07/11 10:25:30;;;;;;;5.78;3.53;;;;;;;30.69;26.87;93729.56;6171432;23;20009;-86
2021/07/11 10:28:13;;;;;;;12.23;3.67;;;;;;;30.72;26.93;93721.31;6196116;23;20004;-86
2021/07/11 10:30:44;;;;;;;4.68;3.33;;;;;;;30.78;26.34;93730.56;6211012;23;20444;-86
2021/07/11 10:33:11;;;;;;;4.28;3.45;;;;;;;30.70;26.59;93742.78;6196712;23;20021;-86
2021/07/11 10:35:48;;;;;;;5.97;3.38;;;;;;;30.64;27.54;93727.31;6198722;23;20545;-88
2021/07/11 10:38:24;;;;;;;5.90;3.75;;;;;;;30.76;26.70;93723.97;6139577;23;20017;-87
2021/07/11 10:40:55;;;;;;;5.63;3.50;;;;;;;30.52;26.70;93677.66;6168195;23;20071;-88
2021/07/11 10:43:20;;;;;;;7.95;3.17;;;;;;;30.57;25.70;93694.72;6172149;23;20020;-87
2021/07/11 10:45:49;;;;;;;7.43;3.22;;;;;;;30.57;25.99;93695.47;6201175;23;20016;-87
2021/07/11 10:48:26;;;;;;;5.30;3.30;;;;;;;30.55;25.65;93674.06;6173433;23;20020;-85
2021/07/11 10:50:51;;;;;;;3.85;2.90;;;;;;;30.35;26.51;93684.16;6171077;23;20021;-85
2021/07/11 10:53:18;;;;;;;4.55;2.80;;;;;;;30.64;25.70;93717.19;6198113;23;20098;-83
2021/07/11 10:55:44;;;;;;;3.22;2.65;;;;;;;30.47;23.71;93719.03;6199483;23;20024;-83
2021/07/11 10:58:17;;;;;;;4.90;2.88;;;;;;;30.53;25.88;93717.38;6205697;23;20047;-85
2021/07/11 11:00:44;;;;;;;5.38;3.17;;;;;;;30.42;24.31;93711.28;6175884;23;20007;-83
2021/07/11 11:03:19;;;;;;;4.43;2.95;;;;;;;30.37;25.60;93706.31;6199806;23;20013;-84
2021/07/11 11:05:46;;;;;;;3.97;2.60;;;;;;;30.54;24.95;93707.97;6199698;23;20017;-85
2021/07/11 11:08:17;;;;;;;6.75;5.32;;;;;;;30.63;24.87;93682.91;6198623;23;20013;-84
2021/07/11 11:10:45;;;;;;;7.65;3.53;;;;;;;30.63;25.02;93660.31;6171736;23;20107;-83
2021/07/11 11:13:26;;;;;;;4.00;2.67;;;;;;;30.67;24.30;93699.19;6200407;23;20008;-84
2021/07/11 11:16:13;;;;;;;7.03;2.92;;;;;;;30.57;24.41;93678.34;6209824;23;20155;-85
2021/07/11 11:18:40;;;;;;;5.07;2.80;;;;;;;30.60;23.84;93661.91;6175165;23;20009;-84
2021/07/11 11:21:13;;;;;;;4.00;2.92;;;;;;;30.48;23.84;93676.94;6202365;23;20120;-84
2021/07/11 11:23:49;;;;;;;3.17;2.80;;;;;;;30.51;22.61;93678.81;6172304;23;20090;-85
2021/07/11 11:26:19;;;;;;;6.65;2.83;;;;;;;30.55;23.49;93684.97;6202959;23;20082;-84
2021/07/11 11:28:45;;;;;;;2.97;2.47;;;;;;;30.62;23.53;93686.81;6199376;23;20021;-85
2021/07/11 11:31:37;;;;;;;3.65;2.30;;;;;;;30.71;23.00;93683.53;6195405;23;20360;-85
2021/07/11 11:34:06;;;;;;;4.53;2.30;;;;;;;30.75;24.37;93681.50;6164371;23;20393;-86